This is the latest recevied weather packets stored in our database for station/object N0THY. If no packets are shown the sender has not sent any weather packets the latest 10 day(s).
| Time | Temp. | Humidity | Pressure | Rain* | Wind** | Luminosity | Snow |
|---|---|---|---|---|---|---|---|
| 1777378277 | 3.33° C | 94% | 1017.1 hPa | 0 mm | - | - | - |
| 1777377374 | 3.33° C | 94% | 1016.9 hPa | 0 mm | - | - | - |
| 1777375568 | 3.33° C | 97% | 1016.7 hPa | 2.79 mm | - | - | - |
| 1777374665 | 3.89° C | 96% | 1016.5 hPa | 2.79 mm | - | - | - |
| 1777373762 | 3.89° C | 95% | 1016.4 hPa | 2.29 mm | - | - | - |
| 1777372859 | 3.89° C | 91% | 1016.5 hPa | 2.29 mm | - | - | - |
| 1777371956 | 4.44° C | 91% | 1016.4 hPa | 2.29 mm | - | - | - |
| 1777371053 | 4.44° C | 87% | 1016.4 hPa | 2.03 mm | - | - | - |
| 1777370150 | 4.44° C | 85% | 1016.3 hPa | 2.03 mm | - | - | - |
| 1777368345 | 4.44° C | 82% | 1016 hPa | 1.52 mm | - | - | - |
| 1777366539 | 5.56° C | 78% | 1016 hPa | 1.27 mm | - | - | - |
| 1777365636 | 6.11° C | 73% | 1015.6 hPa | 0.76 mm | - | - | - |
| 1777364733 | 6.67° C | 71% | 1015.4 hPa | 0.76 mm | - | - | - |
| 1777363830 | 6.67° C | 70% | 1015.3 hPa | 0.76 mm | - | - | - |
| 1777362927 | 6.67° C | 70% | 1015.4 hPa | 0.76 mm | - | - | - |
| 1777362024 | 6.67° C | 70% | 1015.4 hPa | 0.76 mm | - | - | - |
| 1777361121 | 7.22° C | 68% | 1015.3 hPa | 0.76 mm | - | - | - |
| 1777360218 | 7.22° C | 66% | 1015.1 hPa | 0.76 mm | - | - | - |
| 1777359315 | 7.78° C | 66% | 1014.8 hPa | 0.76 mm | - | - | - |
| 1777358412 | 7.78° C | 67% | 1014.6 hPa | 0.76 mm | - | - | - |
| 1777357509 | 7.78° C | 67% | 1014.4 hPa | 0.76 mm | - | - | - |
| 1777356606 | 7.78° C | 66% | 1014.1 hPa | 0.76 mm | - | - | - |
| 1777355703 | 7.78° C | 66% | 1014.3 hPa | 0.76 mm | - | - | - |
| 1777354800 | 7.78° C | 66% | 1014 hPa | 0.76 mm | - | - | - |
| 1777353897 | 7.78° C | 66% | 1013.6 hPa | 0.76 mm | - | - | - |
* Rain since midnight (hover to see other rain measurements)
** Current wind speed in m/s (hover to see current wind gust speed)